createdAt,value
2023-04-01T00:03:07.565Z,10.16
2023-04-01T00:18:25.985Z,10.24
2023-04-01T00:33:28.625Z,10.24
2023-04-01T00:48:36.530Z,10.32
2023-04-01T01:03:39.366Z,10.33
2023-04-01T01:19:01.993Z,10.37
2023-04-01T01:34:23.059Z,10.32
2023-04-01T01:49:42.944Z,10.24
2023-04-01T02:05:02.154Z,10.15
2023-04-01T02:20:24.294Z,10.16
2023-04-01T02:35:41.344Z,10.06
2023-04-01T02:50:58.508Z,9.96
2023-04-01T03:06:09.535Z,9.91
2023-04-01T03:21:22.110Z,9.99
2023-04-01T03:36:39.215Z,10.06
2023-04-01T03:51:56.247Z,10.11
2023-04-01T04:06:59.051Z,10.12
2023-04-01T04:22:16.099Z,10.15
2023-04-01T04:37:18.450Z,10.23
2023-04-01T04:52:35.610Z,10.27
2023-04-01T05:07:38.153Z,10.29
2023-04-01T05:22:40.814Z,10.11
2023-04-01T05:37:43.608Z,9.96
2023-04-01T05:52:47.006Z,10.05
2023-04-01T06:08:12.859Z,10.16
2023-04-01T06:23:39.849Z,10.18
2023-04-01T06:39:37.531Z,10.11
2023-04-01T06:54:53.157Z,10.14
2023-04-01T07:10:00.863Z,10.31
2023-04-01T07:25:28.249Z,10.07
2023-04-01T07:41:11.777Z,10.01
2023-04-01T07:56:36.338Z,10.38
2023-04-01T08:12:06.956Z,10.48
2023-04-01T08:27:23.983Z,10.30
2023-04-01T08:42:45.397Z,10.03
2023-04-01T08:58:09.406Z,9.92
2023-04-01T09:13:47.080Z,9.80
2023-04-01T09:29:38.710Z,9.93
2023-04-01T09:45:08.152Z,9.66
2023-04-01T10:00:16.854Z,9.38
2023-04-01T10:15:51.512Z,9.27
2023-04-01T10:31:17.288Z,9.32
2023-04-01T10:47:03.251Z,9.46
2023-04-01T11:02:49.948Z,9.40
2023-04-01T11:18:23.804Z,9.49
2023-04-01T11:33:55.290Z,9.26
2023-04-01T11:49:32.950Z,9.05
2023-04-01T12:11:30.701Z,9.22
2023-04-01T12:27:29.981Z,8.95
2023-04-01T12:43:06.647Z,8.83
2023-04-01T12:59:00.397Z,8.79
2023-04-01T13:14:40.721Z,8.71
2023-04-01T13:30:00.787Z,8.71
2023-04-01T13:45:19.828Z,8.86
2023-04-01T14:01:15.568Z,8.78
2023-04-01T14:32:53.791Z,8.64
2023-04-01T14:48:18.172Z,8.63
2023-04-01T15:03:54.870Z,8.62
2023-04-01T15:19:45.831Z,8.39
2023-04-01T15:35:15.321Z,8.34
2023-04-01T15:50:26.272Z,8.15
2023-04-01T16:06:10.844Z,7.99
2023-04-01T16:21:39.287Z,7.89
2023-04-01T16:37:00.922Z,7.84
2023-04-01T16:52:03.596Z,7.65
2023-04-01T17:07:30.452Z,7.31
2023-04-01T17:23:21.998Z,6.98
2023-04-01T17:38:56.805Z,6.80
2023-04-01T17:54:43.437Z,6.70
2023-04-01T18:10:24.237Z,6.54
2023-04-01T18:25:47.176Z,6.33
2023-04-01T18:42:09.450Z,6.14
2023-04-01T18:57:16.103Z,5.98
2023-04-01T19:12:34.422Z,5.80
2023-04-01T19:28:07.796Z,5.67
2023-04-01T19:43:24.414Z,5.56
2023-04-01T19:59:21.211Z,5.37
2023-04-01T20:14:57.087Z,5.15
2023-04-01T20:30:44.382Z,4.87
2023-04-01T20:46:24.419Z,4.76
2023-04-01T21:01:55.673Z,4.69
2023-04-01T21:17:26.869Z,4.65
2023-04-01T21:33:02.150Z,4.58
2023-04-01T21:48:49.611Z,4.48
2023-04-01T22:04:21.920Z,4.29
2023-04-01T22:19:51.347Z,4.10
2023-04-01T22:35:06.378Z,4.03
2023-04-01T22:50:25.894Z,3.92
2023-04-01T23:05:31.210Z,3.85
2023-04-01T23:20:53.829Z,3.77
2023-04-01T23:36:15.978Z,3.70
